This is the latest recevied weather packets stored in our database for station/object EA1ZE. If no packets are shown the sender has not sent any weather packets the latest 10 day(s).
| Time | Temp. | Humidity | Pressure | Rain* | Wind** | Luminosity | Snow |
|---|---|---|---|---|---|---|---|
| 1777676462 | 14.44° C | 83% | 1017.1 hPa | 1.27 mm | - | - | - |
| 1777675553 | 14.44° C | 81% | 1017 hPa | 1.27 mm | - | - | - |
| 1777674650 | 15° C | 77% | 1018.3 hPa | 0.51 mm | - | - | - |
| 1777673753 | 16.67° C | 68% | 1017.6 hPa | 0 mm | - | - | - |
| 1777672842 | 16.11° C | 67% | 1017.1 hPa | 0 mm | - | - | - |
| 1777671944 | 16.11° C | 69% | 1016.8 hPa | 0 mm | - | - | - |
| 1777671039 | 16.11° C | 70% | 1016.8 hPa | 0 mm | - | - | - |
| 1777670139 | 16.67° C | 68% | 1016.8 hPa | 0 mm | - | - | - |
| 1777669237 | 17.22° C | 65% | 1016.7 hPa | 0 mm | - | - | - |
| 1777668337 | 18.33° C | 60% | 1016.9 hPa | 0 mm | - | - | - |
| 1777667437 | 18.89° C | 56% | 1016.8 hPa | 0 mm | - | - | - |
| 1777666537 | 19.44° C | 55% | 1016.5 hPa | 0 mm | - | - | - |
| 1777665639 | 19.44° C | 54% | 1016.5 hPa | 0 mm | - | - | - |
| 1777664739 | 20° C | 52% | 1016.3 hPa | 0 mm | - | - | - |
| 1777663837 | 20.56° C | 52% | 1016.2 hPa | 0 mm | - | - | - |
| 1777662950 | 20.56° C | 47% | 1016.3 hPa | 0 mm | - | - | - |
| 1777662044 | 21.11° C | 46% | 1016.3 hPa | 0 mm | - | - | - |
| 1777661134 | 21.67° C | 45% | 1016.2 hPa | 0 mm | - | - | - |
| 1777660234 | 21.67° C | 44% | 1016.2 hPa | 0 mm | - | - | - |
| 1777659337 | 22.22° C | 44% | 1016.3 hPa | 0 mm | - | - | - |
| 1777658440 | 22.22° C | 42% | 1016 hPa | 0 mm | - | - | - |
| 1777657532 | 22.22° C | 41% | 1016.1 hPa | 0 mm | - | - | - |
| 1777656650 | 22.78° C | 40% | 1016.1 hPa | 0 mm | - | - | - |
| 1777655735 | 23.33° C | 39% | 1016.1 hPa | 0 mm | - | - | - |
| 1777654829 | 23.33° C | 38% | 1016.1 hPa | 0 mm | - | - | - |
* Rain latest hour (hover to see other rain measurements)
** Current wind speed in m/s (hover to see current wind gust speed)